createdAt,value
2023-01-05T00:02:47.454Z,12.20
2023-01-05T00:07:49.160Z,12.20
2023-01-05T00:13:09.007Z,12.20
2023-01-05T00:18:32.932Z,12.30
2023-01-05T00:23:34.633Z,12.20
2023-01-05T00:28:36.326Z,12.30
2023-01-05T00:33:38.024Z,12.20
2023-01-05T00:38:39.686Z,12.20
2023-01-05T00:43:41.406Z,12.00
2023-01-05T00:48:43.084Z,11.80
2023-01-05T00:53:44.795Z,11.70
2023-01-05T00:58:46.484Z,11.60
2023-01-05T01:03:48.218Z,11.60
2023-01-05T01:08:50.514Z,11.60
2023-01-05T01:13:52.231Z,11.60
2023-01-05T01:18:53.905Z,11.60
2023-01-05T01:23:55.611Z,11.60
2023-01-05T01:28:58.324Z,11.60
2023-01-05T01:34:00.035Z,11.60
2023-01-05T01:39:01.772Z,11.60
2023-01-05T01:44:23.637Z,11.40
2023-01-05T01:49:25.371Z,11.50
2023-01-05T01:54:27.054Z,11.40
2023-01-05T01:59:29.128Z,11.40
2023-01-05T02:04:32.727Z,11.30
2023-01-05T02:09:35.438Z,11.30
2023-01-05T02:15:00.477Z,11.30
2023-01-05T02:20:02.103Z,11.30
2023-01-05T02:25:31.221Z,11.30
2023-01-05T02:30:59.266Z,11.30
2023-01-05T02:36:14.896Z,11.30
2023-01-05T02:41:25.383Z,11.40
2023-01-05T02:46:27.140Z,11.40
2023-01-05T02:51:35.208Z,11.40
2023-01-05T02:56:46.632Z,11.40
2023-01-05T03:01:56.816Z,11.40
2023-01-05T03:07:13.041Z,11.40
2023-01-05T03:12:54.480Z,11.20
2023-01-05T03:18:00.334Z,10.90
2023-01-05T03:23:24.607Z,10.50
2023-01-05T03:28:54.253Z,10.40
2023-01-05T03:34:30.513Z,10.40
2023-01-05T03:39:35.618Z,10.40
2023-01-05T03:44:46.301Z,10.50
2023-01-05T03:49:47.963Z,10.60
2023-01-05T03:54:49.613Z,10.70
2023-01-05T03:59:51.258Z,10.80
2023-01-05T04:04:52.995Z,10.70
2023-01-05T04:09:54.733Z,10.60
2023-01-05T04:14:56.388Z,10.70
2023-01-05T04:19:58.381Z,10.70
2023-01-05T04:25:00.054Z,10.70
2023-01-05T04:30:01.794Z,10.70
2023-01-05T04:35:10.602Z,10.70
2023-01-05T04:40:12.976Z,10.50
2023-01-05T04:45:14.683Z,10.40
2023-01-05T04:50:16.451Z,10.40
2023-01-05T04:55:18.243Z,10.40
2023-01-05T05:00:20.091Z,10.40
2023-01-05T05:05:21.769Z,10.40
2023-01-05T05:10:23.507Z,10.40
2023-01-05T05:15:25.200Z,10.60
2023-01-05T05:20:26.860Z,10.60
2023-01-05T05:25:28.522Z,10.70
2023-01-05T05:30:30.214Z,10.70
2023-01-05T05:35:32.716Z,10.90
2023-01-05T05:40:34.453Z,10.80
2023-01-05T05:45:36.135Z,10.70
2023-01-05T05:50:37.822Z,10.60
2023-01-05T05:55:39.619Z,10.50
2023-01-05T06:00:41.727Z,10.60
2023-01-05T06:05:44.590Z,10.40
2023-01-05T06:10:46.663Z,10.60
2023-01-05T06:15:48.971Z,10.50
2023-01-05T06:20:53.954Z,10.50
2023-01-05T06:25:58.169Z,10.40
2023-01-05T06:30:59.924Z,10.40
2023-01-05T06:36:01.647Z,10.50
2023-01-05T06:41:03.391Z,10.60
2023-01-05T06:46:05.318Z,10.60
2023-01-05T06:51:07.134Z,10.60
2023-01-05T06:56:08.817Z,10.60
2023-01-05T07:01:10.553Z,10.60
2023-01-05T07:06:15.285Z,10.60
2023-01-05T07:11:17.064Z,10.50
2023-01-05T07:16:19.345Z,10.50
2023-01-05T07:21:21.491Z,10.50
2023-01-05T07:26:23.336Z,10.60
2023-01-05T07:31:25.098Z,10.50
2023-01-05T07:36:27.043Z,10.60
2023-01-05T07:41:28.736Z,10.50
2023-01-05T07:46:30.781Z,10.50
2023-01-05T07:51:32.546Z,10.50
2023-01-05T07:56:34.225Z,10.60
2023-01-05T08:01:36.079Z,10.60
2023-01-05T08:06:38.021Z,10.50
2023-01-05T08:11:39.698Z,10.40
2023-01-05T08:16:42.850Z,10.40
2023-01-05T08:21:44.560Z,10.40
2023-01-05T08:26:46.302Z,10.50
2023-01-05T08:31:48.366Z,10.50
2023-01-05T08:36:50.208Z,10.50
2023-01-05T08:41:54.108Z,10.60
2023-01-05T08:46:59.166Z,10.60
2023-01-05T08:52:00.868Z,10.60
2023-01-05T08:57:02.587Z,10.70
2023-01-05T09:02:04.504Z,10.80
2023-01-05T09:07:06.413Z,10.80
2023-01-05T09:12:08.530Z,10.90
2023-01-05T09:17:10.332Z,10.90
2023-01-05T09:22:12.062Z,10.80
2023-01-05T09:27:13.763Z,10.70
2023-01-05T09:32:15.600Z,10.50
2023-01-05T09:37:17.606Z,10.80
2023-01-05T09:42:22.480Z,10.70
2023-01-05T09:47:42.856Z,10.80
2023-01-05T09:52:44.748Z,10.80
2023-01-05T09:58:18.932Z,10.70
2023-01-05T10:04:01.927Z,10.70
2023-01-05T10:08:51.336Z,10.80
2023-01-05T10:14:08.957Z,10.60
2023-01-05T10:19:14.020Z,10.70
2023-01-05T10:24:33.699Z,10.80
2023-01-05T10:29:44.579Z,11.00
2023-01-05T10:34:55.073Z,11.00
2023-01-05T10:40:06.116Z,10.80
2023-01-05T10:45:11.369Z,10.90
2023-01-05T10:50:30.746Z,10.90
2023-01-05T10:55:45.713Z,11.00
2023-01-05T11:00:47.939Z,11.20
2023-01-05T11:05:49.721Z,11.30
2023-01-05T11:11:05.647Z,11.60
2023-01-05T11:16:21.349Z,11.60
2023-01-05T11:21:26.089Z,11.60
2023-01-05T11:26:34.014Z,11.80
2023-01-05T11:31:49.603Z,11.60
2023-01-05T11:36:55.884Z,11.40
2023-01-05T11:42:28.139Z,11.60
2023-01-05T11:47:43.567Z,11.70
2023-01-05T11:52:50.300Z,11.60
2023-01-05T11:57:59.658Z,11.50
2023-01-05T12:03:11.117Z,11.30
2023-01-05T12:08:17.844Z,11.20
2023-01-05T12:13:50.020Z,11.20
2023-01-05T12:19:10.557Z,11.10
2023-01-05T12:24:43.328Z,11.00
2023-01-05T12:31:47.348Z,11.10
2023-01-05T12:35:52.745Z,11.10
2023-01-05T12:41:28.458Z,11.10
2023-01-05T12:47:11.402Z,11.00
2023-01-05T12:52:20.530Z,11.10
2023-01-05T12:57:32.841Z,11.00
2023-01-05T13:02:46.712Z,11.00
2023-01-05T13:07:52.714Z,11.00
2023-01-05T13:13:04.021Z,10.80
2023-01-05T13:18:06.826Z,10.90
2023-01-05T13:23:17.444Z,10.90
2023-01-05T13:28:21.726Z,10.90
2023-01-05T13:33:41.803Z,10.80
2023-01-05T13:38:49.710Z,10.90
2023-01-05T13:44:15.927Z,10.80
2023-01-05T13:49:29.280Z,10.70
2023-01-05T13:55:01.152Z,10.80
2023-01-05T14:00:34.892Z,10.80
2023-01-05T14:05:58.381Z,10.80
2023-01-05T14:11:07.578Z,10.80
2023-01-05T14:16:41.296Z,10.90
2023-01-05T14:21:49.040Z,10.90
2023-01-05T14:27:16.131Z,10.80
2023-01-05T14:32:21.389Z,10.70
2023-01-05T14:37:41.190Z,10.70
2023-01-05T14:42:47.783Z,10.70
2023-01-05T14:47:52.966Z,10.70
2023-01-05T14:53:09.825Z,10.70
2023-01-05T14:58:35.846Z,10.60
2023-01-05T15:03:53.274Z,10.30
2023-01-05T15:09:41.382Z,10.20
2023-01-05T15:14:49.703Z,10.00
2023-01-05T15:20:19.355Z,10.10
2023-01-05T15:26:03.136Z,9.90
2023-01-05T15:31:14.649Z,9.70
2023-01-05T15:36:31.433Z,9.70
2023-01-05T15:41:33.285Z,9.50
2023-01-05T15:46:35.111Z,9.40
2023-01-05T15:51:37.805Z,9.40
2023-01-05T15:56:41.188Z,9.50
2023-01-05T16:01:42.838Z,9.30
2023-01-05T16:06:47.345Z,9.30
2023-01-05T16:11:50.818Z,9.40
2023-01-05T16:16:55.605Z,9.40
2023-01-05T16:22:26.320Z,9.40
2023-01-05T16:27:29.035Z,9.40
2023-01-05T16:32:41.718Z,9.40
2023-01-05T16:37:43.461Z,9.50
2023-01-05T16:42:50.458Z,9.60
2023-01-05T16:47:53.317Z,9.30
2023-01-05T16:52:56.578Z,9.40
2023-01-05T16:57:59.747Z,9.40
2023-01-05T17:03:31.726Z,9.50
2023-01-05T17:08:37.701Z,9.40
2023-01-05T17:13:52.743Z,9.40
2023-01-05T17:18:54.551Z,9.40
2023-01-05T17:23:58.872Z,9.30
2023-01-05T17:34:04.769Z,9.20
2023-01-05T17:39:06.739Z,9.20
2023-01-05T17:44:08.994Z,9.40
2023-01-05T17:49:20.855Z,9.30
2023-01-05T17:54:22.677Z,9.30
2023-01-05T17:59:24.563Z,9.30
2023-01-05T18:04:27.304Z,9.30
2023-01-05T18:09:30.466Z,9.40
2023-01-05T18:14:33.751Z,9.30
2023-01-05T18:19:35.712Z,9.30
2023-01-05T18:24:41.755Z,9.20
2023-01-05T18:29:44.754Z,9.20
2023-01-05T18:34:46.798Z,9.20
2023-01-05T18:39:48.762Z,9.10
2023-01-05T18:44:50.596Z,9.20
2023-01-05T18:49:54.797Z,9.20
2023-01-05T18:54:57.576Z,9.20
2023-01-05T19:00:02.305Z,9.10
2023-01-05T19:05:05.822Z,9.10
2023-01-05T19:10:08.403Z,9.10
2023-01-05T19:15:13.556Z,9.00
2023-01-05T19:20:19.222Z,8.90
2023-01-05T19:25:24.920Z,8.90
2023-01-05T19:30:27.693Z,8.80
2023-01-05T19:35:33.818Z,8.90
2023-01-05T19:40:39.816Z,8.80
2023-01-05T19:45:41.891Z,8.80
2023-01-05T19:50:47.039Z,8.80
2023-01-05T20:01:11.662Z,8.90
2023-01-05T20:06:18.788Z,8.80
2023-01-05T20:11:46.024Z,8.90
2023-01-05T20:16:58.825Z,8.90
2023-01-05T20:22:06.834Z,8.90
2023-01-05T20:27:14.875Z,8.90
2023-01-05T20:32:21.998Z,8.90
2023-01-05T20:37:23.996Z,9.00
2023-01-05T20:42:27.476Z,8.90
2023-01-05T20:47:39.468Z,9.00
2023-01-05T20:52:51.020Z,8.90
2023-01-05T20:57:54.045Z,9.00
2023-01-05T21:02:57.861Z,9.10
2023-01-05T21:07:59.614Z,8.90
2023-01-05T21:13:31.279Z,8.90
2023-01-05T21:18:25.541Z,8.90
2023-01-05T21:23:27.466Z,8.90
2023-01-05T21:28:32.551Z,9.00
2023-01-05T21:33:36.576Z,9.00
2023-01-05T21:39:01.938Z,9.00
2023-01-05T21:44:02.872Z,9.00
2023-01-05T21:49:05.954Z,9.10
2023-01-05T21:54:29.222Z,9.10
2023-01-05T21:59:31.049Z,9.10
2023-01-05T22:04:33.817Z,9.10
2023-01-05T22:09:36.713Z,9.10
2023-01-05T22:14:40.774Z,9.10
2023-01-05T22:19:42.493Z,9.10
2023-01-05T22:24:47.143Z,9.10
2023-01-05T22:29:49.989Z,9.10
2023-01-05T22:34:52.929Z,9.00
2023-01-05T22:39:54.700Z,9.00
2023-01-05T22:44:57.962Z,9.00
2023-01-05T22:50:00.188Z,9.00
2023-01-05T22:55:01.872Z,8.90
2023-01-05T23:00:04.705Z,8.80
2023-01-05T23:05:06.684Z,8.80
2023-01-05T23:10:09.252Z,8.70
2023-01-05T23:15:13.430Z,8.60
2023-01-05T23:20:15.532Z,8.40
2023-01-05T23:25:19.086Z,8.30
2023-01-05T23:30:21.797Z,8.10
2023-01-05T23:35:23.504Z,8.10
2023-01-05T23:40:26.731Z,8.00
2023-01-05T23:45:29.983Z,8.10
2023-01-05T23:50:33.860Z,8.10
2023-01-05T23:55:36.027Z,8.10
